createdAt,value
2023-04-05T00:02:47.627Z,2.76
2023-04-05T00:05:48.615Z,2.75
2023-04-05T00:08:50.612Z,2.76
2023-04-05T00:11:52.711Z,2.80
2023-04-05T00:14:53.608Z,2.80
2023-04-05T00:17:53.685Z,2.80
2023-04-05T00:20:53.677Z,2.79
2023-04-05T00:23:54.618Z,2.80
2023-04-05T00:26:54.829Z,2.79
2023-04-05T00:29:54.630Z,2.75
2023-04-05T00:32:58.979Z,2.73
2023-04-05T00:36:00.725Z,2.76
2023-04-05T00:39:00.845Z,2.76
2023-04-05T00:42:01.810Z,2.74
2023-04-05T00:45:01.682Z,2.74
2023-04-05T00:48:02.781Z,2.77
2023-04-05T00:51:03.683Z,2.79
2023-04-05T00:54:07.774Z,2.79
2023-04-05T00:57:08.716Z,2.74
2023-04-05T01:00:13.732Z,2.68
2023-04-05T01:03:15.738Z,2.65
2023-04-05T01:06:19.750Z,2.63
2023-04-05T01:09:21.679Z,2.62
2023-04-05T01:12:22.762Z,2.62
2023-04-05T01:15:24.755Z,2.63
2023-04-05T01:18:31.024Z,2.64
2023-04-05T01:21:48.755Z,2.64
2023-04-05T01:24:59.004Z,2.63
2023-04-05T01:28:08.783Z,2.60
2023-04-05T01:31:14.798Z,2.60
2023-04-05T01:34:32.785Z,2.62
2023-04-05T01:37:33.754Z,2.64
2023-04-05T01:40:34.796Z,2.64
2023-04-05T01:43:34.779Z,2.61
2023-04-05T01:46:35.835Z,2.58
2023-04-05T01:49:36.818Z,2.56
2023-04-05T01:52:36.868Z,2.55
2023-04-05T01:55:36.799Z,2.57
2023-04-05T01:58:45.181Z,2.56
2023-04-05T02:01:44.995Z,2.57
2023-04-05T02:04:44.838Z,2.59
2023-04-05T02:07:46.797Z,2.61
2023-04-05T02:10:46.835Z,2.62
2023-04-05T02:13:52.858Z,2.58
2023-04-05T02:16:55.597Z,2.57
2023-04-05T02:19:58.989Z,2.58
2023-04-05T02:22:59.877Z,2.61
2023-04-05T02:26:08.845Z,2.64
2023-04-05T02:29:08.897Z,2.60
2023-04-05T02:32:08.917Z,2.55
2023-04-05T02:35:10.872Z,2.50
2023-04-05T02:38:11.863Z,2.46
2023-04-05T02:41:12.913Z,2.48
2023-04-05T02:44:12.908Z,2.42
2023-04-05T02:47:16.950Z,2.38
2023-04-05T02:50:20.939Z,2.35
2023-04-05T02:53:23.404Z,2.35
2023-04-05T02:56:27.908Z,2.33
2023-04-05T02:59:30.023Z,2.35
2023-04-05T03:02:30.947Z,2.40
2023-04-05T03:05:30.945Z,2.39
2023-04-05T03:08:34.930Z,2.41
2023-04-05T03:11:35.016Z,2.41
2023-04-05T03:14:35.903Z,2.42
2023-04-05T03:17:39.986Z,2.43
2023-04-05T03:20:41.978Z,2.45
2023-04-05T03:23:49.017Z,2.49
2023-04-05T03:30:39.944Z,2.50
2023-04-05T03:33:45.219Z,2.52
2023-04-05T03:36:52.727Z,2.53
2023-04-05T03:40:08.030Z,2.57
2023-04-05T03:43:09.046Z,2.56
2023-04-05T03:46:10.018Z,2.55
2023-04-05T03:49:10.011Z,2.52
2023-04-05T03:52:15.030Z,2.52
2023-04-05T03:55:23.008Z,2.52
2023-04-05T03:58:23.048Z,2.55
2023-04-05T04:01:25.107Z,2.59
2023-04-05T04:04:25.135Z,2.62
2023-04-05T04:07:26.044Z,2.60
2023-04-05T04:10:27.080Z,2.62
2023-04-05T04:13:28.075Z,2.61
2023-04-05T04:16:33.163Z,2.61
2023-04-05T04:19:46.013Z,2.60
2023-04-05T04:23:04.044Z,2.60
2023-04-05T04:26:43.069Z,2.61
2023-04-05T04:29:56.082Z,2.63
2023-04-05T04:33:14.068Z,2.63
2023-04-05T04:36:43.110Z,2.62
2023-04-05T04:40:00.185Z,2.61
2023-04-05T04:43:25.059Z,2.62
2023-04-05T04:46:49.084Z,2.65
2023-04-05T04:50:06.107Z,2.67
2023-04-05T04:53:06.053Z,2.68
2023-04-05T04:56:10.084Z,2.65
2023-04-05T04:59:10.151Z,2.65
2023-04-05T05:02:15.236Z,2.69
2023-04-05T05:05:15.201Z,2.70
2023-04-05T05:08:17.295Z,2.74
2023-04-05T05:18:05.215Z,2.78
2023-04-05T05:21:05.365Z,2.81
2023-04-05T05:24:05.465Z,2.83
2023-04-05T05:27:05.163Z,2.82
2023-04-05T05:30:05.182Z,2.83
2023-04-05T05:33:11.418Z,2.85
2023-04-05T05:36:14.533Z,2.90
2023-04-05T05:39:14.150Z,2.94
2023-04-05T05:42:15.344Z,2.94
2023-04-05T05:45:16.215Z,2.93
2023-04-05T05:48:17.198Z,2.96
2023-04-05T05:51:17.259Z,2.98
2023-04-05T05:54:17.295Z,3.04
2023-04-05T05:57:17.258Z,3.06
2023-04-05T06:00:18.284Z,3.08
2023-04-05T06:03:20.421Z,3.07
2023-04-05T06:06:23.428Z,3.07
2023-04-05T06:09:24.231Z,3.11
2023-04-05T06:12:27.063Z,3.15
2023-04-05T06:15:28.307Z,3.09
2023-04-05T06:18:28.282Z,3.07
2023-04-05T06:21:29.241Z,3.07
2023-04-05T06:24:30.273Z,3.09
2023-04-05T06:27:30.310Z,3.13
2023-04-05T06:30:30.315Z,3.15
2023-04-05T06:33:31.301Z,3.19
2023-04-05T06:36:31.301Z,3.21
2023-04-05T06:39:33.607Z,3.23
2023-04-05T06:42:33.734Z,3.24
2023-04-05T06:45:43.450Z,3.26
2023-04-05T06:48:44.302Z,3.28
2023-04-05T06:51:47.645Z,3.29
2023-04-05T06:55:01.573Z,3.31
2023-04-05T06:58:03.579Z,3.34
2023-04-05T07:01:39.297Z,3.40
2023-04-05T07:05:01.336Z,3.43
2023-04-05T07:08:06.475Z,3.44
2023-04-05T07:11:08.354Z,3.48
2023-04-05T07:14:09.341Z,3.50
2023-04-05T07:21:02.374Z,3.58
2023-04-05T07:24:07.141Z,3.65
2023-04-05T07:27:08.351Z,3.74
2023-04-05T07:30:08.450Z,3.82
2023-04-05T07:33:09.521Z,3.89
2023-04-05T07:36:31.642Z,3.95
2023-04-05T07:39:32.522Z,4.05
2023-04-05T07:42:33.418Z,4.13
2023-04-05T07:45:33.403Z,4.21
2023-04-05T07:48:35.600Z,4.28
2023-04-05T07:51:35.832Z,4.29
2023-04-05T07:54:36.423Z,4.28
2023-04-05T07:57:38.481Z,4.29
2023-04-05T08:00:39.804Z,4.36
2023-04-05T08:03:41.577Z,4.33
2023-04-05T08:06:41.795Z,4.29
2023-04-05T08:09:44.488Z,4.27
2023-04-05T08:12:45.478Z,4.32
2023-04-05T08:15:46.484Z,4.40
2023-04-05T08:18:46.512Z,4.50
2023-04-05T08:21:46.440Z,4.50
2023-04-05T08:29:00.929Z,4.44
2023-04-05T08:32:02.506Z,4.42
2023-04-05T08:38:33.632Z,4.36
2023-04-05T08:41:37.614Z,4.37
2023-04-05T08:45:17.935Z,4.36
2023-04-05T08:48:23.673Z,4.32
2023-04-05T08:51:29.736Z,4.31
2023-04-05T08:59:06.827Z,4.47
2023-04-05T09:02:07.817Z,4.53
2023-04-05T09:06:51.294Z,4.60
2023-04-05T09:09:19.905Z,4.68
2023-04-05T09:12:23.040Z,4.71
2023-04-05T09:15:35.551Z,4.76
2023-04-05T09:18:35.619Z,4.79
2023-04-05T09:25:55.624Z,4.82
2023-04-05T09:28:55.624Z,4.82
2023-04-05T09:31:56.621Z,4.83
2023-04-05T09:39:57.759Z,4.95
2023-04-05T09:43:06.776Z,4.97
2023-04-05T09:47:08.748Z,4.98
2023-04-05T09:50:40.254Z,4.96
2023-04-05T09:57:26.874Z,5.00
2023-04-05T10:01:15.670Z,4.97
2023-04-05T10:08:02.896Z,5.01
2023-04-05T10:16:17.870Z,5.08
2023-04-05T10:19:18.675Z,5.12
2023-04-05T10:22:19.722Z,5.19
2023-04-05T10:25:25.844Z,5.33
2023-04-05T10:28:47.736Z,5.45
2023-04-05T10:31:58.715Z,5.56
2023-04-05T10:35:09.898Z,5.64
2023-04-05T10:38:12.817Z,5.71
2023-04-05T10:41:23.016Z,5.77
2023-04-05T10:44:26.703Z,5.83
2023-04-05T10:47:27.813Z,5.88
2023-04-05T10:50:34.773Z,5.90
2023-04-05T10:53:36.831Z,5.91
2023-04-05T10:56:38.798Z,5.92
2023-04-05T10:59:39.935Z,5.95
2023-04-05T11:02:43.039Z,6.00
2023-04-05T11:05:45.869Z,6.01
2023-04-05T11:08:45.774Z,6.04
2023-04-05T11:11:53.868Z,6.03
2023-04-05T11:14:53.840Z,5.98
2023-04-05T11:17:56.808Z,5.96
2023-04-05T11:21:04.110Z,5.98
2023-04-05T11:24:17.825Z,6.00
2023-04-05T11:27:18.785Z,6.05
2023-04-05T11:30:18.966Z,6.10
2023-04-05T11:33:20.800Z,6.17
2023-04-05T11:36:21.783Z,6.23
2023-04-05T11:39:33.854Z,6.34
2023-04-05T11:42:33.891Z,6.40
2023-04-05T11:45:34.229Z,6.41
2023-04-05T11:48:37.948Z,6.46
2023-04-05T11:51:38.807Z,6.50
2023-04-05T11:54:45.971Z,6.56
2023-04-05T11:57:45.895Z,6.62
2023-04-05T12:00:45.845Z,6.67
2023-04-05T12:03:46.943Z,6.72
2023-04-05T12:06:46.871Z,6.74
2023-04-05T12:09:47.858Z,6.74
2023-04-05T12:12:53.889Z,6.74
2023-04-05T12:15:54.920Z,6.74
2023-04-05T12:18:56.988Z,6.74
2023-04-05T12:21:56.973Z,6.72
2023-04-05T12:24:57.938Z,6.76
2023-04-05T12:27:57.991Z,6.77
2023-04-05T12:31:06.936Z,6.82
2023-04-05T12:34:08.000Z,6.83
2023-04-05T12:37:09.896Z,6.83
2023-04-05T12:40:09.944Z,6.80
2023-04-05T12:43:25.966Z,6.77
2023-04-05T12:46:30.012Z,6.71
2023-04-05T12:49:30.994Z,6.65
2023-04-05T12:52:31.945Z,6.68
2023-04-05T12:55:31.995Z,6.69
2023-04-05T12:58:35.911Z,6.71
2023-04-05T13:01:37.530Z,6.70
2023-04-05T13:04:38.973Z,6.73
2023-04-05T13:07:39.000Z,6.72
2023-04-05T13:10:39.054Z,6.66
2023-04-05T13:13:39.978Z,6.60
2023-04-05T13:16:40.063Z,6.58
2023-04-05T13:19:40.026Z,6.57
2023-04-05T13:22:40.013Z,6.55
2023-04-05T13:25:40.235Z,6.52
2023-04-05T13:28:42.009Z,6.50
2023-04-05T13:31:43.142Z,6.53
2023-04-05T13:34:43.958Z,6.54
2023-04-05T13:37:45.045Z,6.54
2023-04-05T13:40:45.068Z,6.54
2023-04-05T13:43:45.009Z,6.52
2023-04-05T13:46:46.102Z,6.50
2023-04-05T13:49:46.129Z,6.46
2023-04-05T13:52:46.108Z,6.45
2023-04-05T13:55:46.196Z,6.40
2023-04-05T13:58:48.326Z,6.36
2023-04-05T14:01:49.178Z,6.33
2023-04-05T14:04:49.025Z,6.30
2023-04-05T14:07:50.164Z,6.24
2023-04-05T14:10:51.192Z,6.15
2023-04-05T14:13:53.259Z,6.11
2023-04-05T14:17:01.061Z,6.07
2023-04-05T14:20:08.136Z,6.03
2023-04-05T14:23:17.227Z,5.97
2023-04-05T14:26:18.130Z,5.92
2023-04-05T14:29:18.120Z,5.92
2023-04-05T14:32:20.186Z,5.91
2023-04-05T14:35:20.192Z,5.90
2023-04-05T14:38:23.114Z,5.93
2023-04-05T14:41:23.139Z,5.94
2023-04-05T14:44:29.132Z,5.94
2023-04-05T14:47:29.246Z,5.91
2023-04-05T14:50:31.123Z,5.89
2023-04-05T14:53:31.165Z,5.90
2023-04-05T14:56:35.143Z,5.90
2023-04-05T14:59:35.508Z,5.93
2023-04-05T15:02:36.213Z,5.95
2023-04-05T15:05:36.164Z,5.98
2023-04-05T15:08:36.187Z,6.00
2023-04-05T15:11:36.184Z,6.01
2023-04-05T15:14:36.191Z,6.00
2023-04-05T15:17:38.177Z,6.00
2023-04-05T15:20:38.256Z,6.00
2023-04-05T15:23:39.203Z,6.00
2023-04-05T15:26:39.290Z,6.00
2023-04-05T15:29:39.199Z,6.02
2023-04-05T15:32:40.504Z,6.04
2023-04-05T15:35:42.286Z,6.03
2023-04-05T15:38:43.216Z,5.98
2023-04-05T15:41:43.298Z,5.97
2023-04-05T15:44:44.430Z,5.95
2023-04-05T15:47:44.275Z,5.91
2023-04-05T15:50:47.460Z,5.86
2023-04-05T15:53:47.302Z,5.85
2023-04-05T15:56:47.264Z,5.85
2023-04-05T15:59:50.613Z,5.81
2023-04-05T16:02:55.362Z,5.79
2023-04-05T16:05:50.390Z,5.78
2023-04-05T16:08:57.072Z,5.79
2023-04-05T16:11:57.320Z,5.78
2023-04-05T16:14:58.277Z,5.78
2023-04-05T16:17:58.383Z,5.77
2023-04-05T16:20:59.316Z,5.78
2023-04-05T16:24:00.946Z,5.78
2023-04-05T16:27:01.298Z,5.80
2023-04-05T16:30:01.320Z,5.81
2023-04-05T16:33:02.418Z,5.81
2023-04-05T16:36:03.408Z,5.80
2023-04-05T16:39:04.519Z,5.79
2023-04-05T16:42:04.820Z,5.77
2023-04-05T16:45:07.570Z,5.75
2023-04-05T16:48:10.963Z,5.75
2023-04-05T16:51:11.328Z,5.70
2023-04-05T16:54:15.527Z,5.65
2023-04-05T16:57:15.384Z,5.62
2023-04-05T17:00:15.444Z,5.62
2023-04-05T17:03:36.531Z,5.63
2023-04-05T17:06:37.442Z,5.67
2023-04-05T17:09:42.344Z,5.69
2023-04-05T17:12:46.486Z,5.71
2023-04-05T17:15:47.430Z,5.72
2023-04-05T17:18:47.466Z,5.72
2023-04-05T17:21:49.388Z,5.72
2023-04-05T17:24:51.496Z,5.74
2023-04-05T17:27:55.384Z,5.76
2023-04-05T17:30:55.512Z,5.77
2023-04-05T17:33:56.434Z,5.81
2023-04-05T17:36:57.396Z,5.84
2023-04-05T17:39:58.395Z,5.84
2023-04-05T17:43:02.463Z,5.85
2023-04-05T17:46:02.474Z,5.87
2023-04-05T17:49:02.573Z,5.89
2023-04-05T17:52:03.511Z,5.92
2023-04-05T17:55:04.445Z,5.96
2023-04-05T17:58:07.541Z,5.98
2023-04-05T18:01:07.491Z,5.97
2023-04-05T18:04:11.023Z,5.99
2023-04-05T18:07:12.449Z,6.01
2023-04-05T18:10:13.565Z,6.00
2023-04-05T18:13:13.488Z,6.00
2023-04-05T18:16:14.651Z,5.98
2023-04-05T18:19:17.113Z,5.97
2023-04-05T18:22:17.542Z,5.98
2023-04-05T18:25:18.177Z,6.01
2023-04-05T18:28:23.537Z,6.05
2023-04-05T18:31:24.621Z,6.07
2023-04-05T18:34:24.536Z,6.08
2023-04-05T18:37:28.501Z,6.10
2023-04-05T18:40:31.502Z,6.11
2023-04-05T18:43:34.636Z,6.12
2023-04-05T18:46:34.779Z,6.12
2023-04-05T18:49:34.606Z,6.15
2023-04-05T18:52:39.537Z,6.16
2023-04-05T18:55:40.595Z,6.18
2023-04-05T18:58:41.781Z,6.20
2023-04-05T19:01:45.642Z,6.22
2023-04-05T19:04:49.660Z,6.24
2023-04-05T19:07:52.606Z,6.23
2023-04-05T19:10:54.616Z,6.22
2023-04-05T19:13:56.632Z,6.24
2023-04-05T19:17:05.028Z,6.24
2023-04-05T19:20:08.644Z,6.24
2023-04-05T19:23:09.693Z,6.27
2023-04-05T19:26:11.611Z,6.29
2023-04-05T19:29:13.814Z,6.33
2023-04-05T19:32:24.661Z,6.36
2023-04-05T19:35:24.725Z,6.39
2023-04-05T19:38:26.641Z,6.42
2023-04-05T19:41:28.697Z,6.40
2023-04-05T19:44:46.800Z,6.37
2023-04-05T19:47:56.674Z,6.38
2023-04-05T19:50:57.765Z,6.40
2023-04-05T19:54:05.664Z,6.43
2023-04-05T19:57:05.675Z,6.43
2023-04-05T20:00:16.151Z,6.43
2023-04-05T20:03:20.749Z,6.46
2023-04-05T20:06:24.667Z,6.51
2023-04-05T20:09:25.719Z,6.55
2023-04-05T20:12:28.698Z,6.57
2023-04-05T20:15:28.788Z,6.60
2023-04-05T20:18:37.707Z,6.59
2023-04-05T20:21:41.301Z,6.60
2023-04-05T20:24:42.845Z,6.58
2023-04-05T20:27:42.708Z,6.57
2023-04-05T20:30:42.802Z,6.57
2023-04-05T20:33:46.729Z,6.55
2023-04-05T20:36:47.770Z,6.55
2023-04-05T20:39:47.728Z,6.55
2023-04-05T20:42:51.375Z,6.54
2023-04-05T20:45:53.859Z,6.55
2023-04-05T20:48:53.739Z,6.54
2023-04-05T20:51:56.802Z,6.55
2023-04-05T20:54:57.783Z,6.56
2023-04-05T20:57:58.847Z,6.54
2023-04-05T21:00:58.915Z,6.56
2023-04-05T21:04:00.756Z,6.55
2023-04-05T21:07:02.900Z,6.54
2023-04-05T21:10:02.787Z,6.55
2023-04-05T21:13:04.156Z,6.57
2023-04-05T21:16:03.862Z,6.60
2023-04-05T21:19:03.820Z,6.62
2023-04-05T21:22:06.921Z,6.66
2023-04-05T21:25:06.816Z,6.71
2023-04-05T21:28:09.868Z,6.75
2023-04-05T21:31:15.347Z,6.77
2023-04-05T21:34:18.528Z,6.77
2023-04-05T21:37:19.833Z,6.79
2023-04-05T21:40:20.946Z,6.82
2023-04-05T21:43:20.950Z,6.84
2023-04-05T21:46:20.918Z,6.88
2023-04-05T21:49:21.286Z,6.90
2023-04-05T21:52:21.874Z,6.92
2023-04-05T21:55:22.849Z,6.94
2023-04-05T21:58:23.936Z,6.95
2023-04-05T22:01:23.941Z,6.98
2023-04-05T22:04:25.897Z,7.03
2023-04-05T22:07:26.910Z,7.05
2023-04-05T22:10:29.698Z,7.07
2023-04-05T22:13:30.905Z,7.06
2023-04-05T22:16:33.109Z,7.02
2023-04-05T22:19:38.167Z,7.00
2023-04-05T22:22:38.931Z,6.97
2023-04-05T22:25:40.022Z,6.94
2023-04-05T22:28:40.943Z,6.89
2023-04-05T22:31:43.043Z,6.88
2023-04-05T22:34:42.893Z,6.88
2023-04-05T22:37:43.918Z,6.86
2023-04-05T22:40:43.942Z,6.88
2023-04-05T22:43:44.956Z,6.90
2023-04-05T22:46:44.936Z,6.91
2023-04-05T22:49:50.015Z,6.93
2023-04-05T22:52:50.932Z,6.94
2023-04-05T22:55:51.950Z,6.95
2023-04-05T22:58:53.071Z,6.96
2023-04-05T23:01:59.966Z,7.01
2023-04-05T23:05:01.057Z,7.05
2023-04-05T23:08:01.987Z,7.06
2023-04-05T23:11:02.474Z,7.07
2023-04-05T23:14:05.162Z,7.08
2023-04-05T23:17:04.957Z,7.11
2023-04-05T23:20:06.004Z,7.14
2023-04-05T23:23:06.037Z,7.18
2023-04-05T23:26:06.003Z,7.26
2023-04-05T23:29:06.102Z,7.32
2023-04-05T23:32:07.145Z,7.36
2023-04-05T23:35:07.038Z,7.41
2023-04-05T23:38:08.101Z,7.48
2023-04-05T23:41:08.025Z,7.50
2023-04-05T23:44:11.029Z,7.55
2023-04-05T23:47:12.088Z,7.63
2023-04-05T23:50:12.089Z,7.67
2023-04-05T23:53:12.108Z,7.69
2023-04-05T23:56:12.091Z,7.71
2023-04-05T23:59:12.073Z,7.71
